Ye Chi — VRFV6 — position and weather

sailwx.info

Track history (hours):
 
Tides and Currents Weather Stations Pressure Air Temp Water Temp Dewpoint Dewpoint Depression Visibility Wind Speed Wind Dir Waves Ship Positions

Ye Chi

Last reported at 2016-May-28 13:18 UTC. Time now 2016-May-31 18:00 UTC.
Position N 01°15' E 104°05'.

Length 187 m; draft 11 m.

Type: Tanker. MMSI: 477621300.

Date/timePositionNaut miles runAvg speedWind from/ knotsBaromVisibWave heightAir tempDewpointWater temp
2016-May-28 13:18N 01°15' E 104°05'911.9
2016-May-28 12:33N 01°13' E 103°56'9 8.7
2016-May-28 11:34N 01°13' E 103°48'1 1.1
2016-May-28 10:33N 01°14' E 103°47'0 0.1
2016-May-28 09:33N 01°14' E 103°47'0 0.0
2016-May-28 08:30N 01°14' E 103°47'0 0.0
2016-May-28 07:33N 01°14' E 103°47'0 0.1
2016-May-28 06:30N 01°14' E 103°47'0 0.0
2016-May-28 05:33N 01°14' E 103°47'0 0.1
2016-May-28 04:33N 01°14' E 103°47'5 5.2
2016-May-28 03:32N 01°18' E 103°43'0 0.0
2016-May-28 01:23N 01°17' E 103°43'0 0.0
2016-May-28 00:29N 01°18' E 103°43'0 0.0
2016-May-27 23:26N 01°17' E 103°43'0 0.0
2016-May-27 22:32N 01°17' E 103°43'0 0.0
2016-May-27 21:20N 01°17' E 103°43'0 0.0
2016-May-27 20:29N 01°17' E 103°43'0 0.0
2016-May-27 19:29N 01°18' E 103°43'0 0.0
2016-May-27 18:26N 01°17' E 103°43'0 0.0
2016-May-27 16:23N 01°17' E 103°43'0 0.0
2016-May-27 14:29N 01°17' E 103°43'0 0.0
2016-May-27 13:29N 01°18' E 103°43'0 0.0
2016-May-27 12:32N 01°18' E 103°43'0 0.0
2016-May-27 11:29N 01°17' E 103°43'0 0.0
2016-May-27 08:17N 01°18' E 103°43'0 0.0
2016-May-27 07:05N 01°18' E 103°43'0 0.0
2016-May-27 04:29N 01°17' E 103°43'0 0.0
2016-May-27 01:14N 01°17' E 103°43'0 0.0
2016-May-26 23:32N 01°17' E 103°43'0 0.0
2016-May-26 12:29N 01°17' E 103°43'0 0.0
2016-May-26 05:29N 01°18' E 103°43'0 0.1
2016-May-26 04:32N 01°17' E 103°43'0 0.0
2016-May-26 03:32N 01°17' E 103°43'0 0.0
2016-May-26 02:29N 01°18' E 103°43'0 0.0
2016-May-26 00:32N 01°17' E 103°43'0 0.0
2016-May-25 22:29N 01°17' E 103°43'0 0.0
2016-May-25 21:26N 01°17' E 103°43'0 0.0
2016-May-25 20:32N 01°18' E 103°43'0 0.0
2016-May-25 19:32N 01°18' E 103°43'0 0.0
2016-May-25 18:26N 01°17' E 103°43'0 0.0
2016-May-25 16:26N 01°17' E 103°43'0 0.0
2016-May-25 07:14N 01°17' E 103°43'1 1.7
2016-May-25 06:33N 01°17' E 103°44'6 6.0
2016-May-25 05:30N 01°13' E 103°49'0 0.1
2016-May-25 04:33N 01°13' E 103°49'2 1.9
2016-May-25 03:33N 01°13' E 103°51'9 9.1
2016-May-25 02:33N 01°16' E 103°60'  
Track history (hours):
 
Tides and Currents Weather Stations Pressure Air Temp Water Temp Dewpoint Dewpoint Depression Visibility Wind Speed Wind Dir Waves Ship Positions

Ye Chi

Last reported at 2016-May-28 13:18 UTC. Time now 2016-May-31 18:00 UTC.
Position N 01°15' E 104°05'.

Length 187 m; draft 11 m.

Type: Tanker. MMSI: 477621300.

Date/timePositionNaut miles runAvg speedWind from/ knotsBaromVisibWave heightAir tempDewpointWater temp
2016-May-28 13:18N 01°15' E 104°05'911.9
2016-May-28 12:33N 01°13' E 103°56'9 8.7
2016-May-28 11:34N 01°13' E 103°48'1 1.1
2016-May-28 10:33N 01°14' E 103°47'0 0.1
2016-May-28 09:33N 01°14' E 103°47'0 0.0
2016-May-28 08:30N 01°14' E 103°47'0 0.0
2016-May-28 07:33N 01°14' E 103°47'0 0.1
2016-May-28 06:30N 01°14' E 103°47'0 0.0
2016-May-28 05:33N 01°14' E 103°47'0 0.1
2016-May-28 04:33N 01°14' E 103°47'5 5.2
2016-May-28 03:32N 01°18' E 103°43'0 0.0
2016-May-28 01:23N 01°17' E 103°43'0 0.0
2016-May-28 00:29N 01°18' E 103°43'0 0.0
2016-May-27 23:26N 01°17' E 103°43'0 0.0
2016-May-27 22:32N 01°17' E 103°43'0 0.0
2016-May-27 21:20N 01°17' E 103°43'0 0.0
2016-May-27 20:29N 01°17' E 103°43'0 0.0
2016-May-27 19:29N 01°18' E 103°43'0 0.0
2016-May-27 18:26N 01°17' E 103°43'0 0.0
2016-May-27 16:23N 01°17' E 103°43'0 0.0
2016-May-27 14:29N 01°17' E 103°43'0 0.0
2016-May-27 13:29N 01°18' E 103°43'0 0.0
2016-May-27 12:32N 01°18' E 103°43'0 0.0
2016-May-27 11:29N 01°17' E 103°43'0 0.0
2016-May-27 08:17N 01°18' E 103°43'0 0.0
2016-May-27 07:05N 01°18' E 103°43'0 0.0
2016-May-27 04:29N 01°17' E 103°43'0 0.0
2016-May-27 01:14N 01°17' E 103°43'0 0.0
2016-May-26 23:32N 01°17' E 103°43'0 0.0
2016-May-26 12:29N 01°17' E 103°43'0 0.0
2016-May-26 05:29N 01°18' E 103°43'0 0.1
2016-May-26 04:32N 01°17' E 103°43'0 0.0
2016-May-26 03:32N 01°17' E 103°43'0 0.0
2016-May-26 02:29N 01°18' E 103°43'0 0.0
2016-May-26 00:32N 01°17' E 103°43'0 0.0
2016-May-25 22:29N 01°17' E 103°43'0 0.0
2016-May-25 21:26N 01°17' E 103°43'0 0.0
2016-May-25 20:32N 01°18' E 103°43'0 0.0
2016-May-25 19:32N 01°18' E 103°43'0 0.0
2016-May-25 18:26N 01°17' E 103°43'0 0.0
2016-May-25 16:26N 01°17' E 103°43'0 0.0
2016-May-25 07:14N 01°17' E 103°43'1 1.7
2016-May-25 06:33N 01°17' E 103°44'6 6.0
2016-May-25 05:30N 01°13' E 103°49'0 0.1
2016-May-25 04:33N 01°13' E 103°49'2 1.9
2016-May-25 03:33N 01°13' E 103°51'9 9.1
2016-May-25 02:33N 01°16' E 103°60'  

Dump ship's entire track history